Time;durP1;ratioP1;P1;durP2;ratioP2;P2;SDS_P1;SDS_P2;PMS_P1;PMS_P2;Temp;Humidity;BMP_temperature;BMP_pressure;BME280_temperature;BME280_humidity;BME280_pressure;Samples;Min_cycle;Max_cycle;Signal;HPM_P1;HPM_P2
2022/06/11 00:01:13;;;;;;;11.02;2.05;;;19.50;70.90;;;;;;4940704;29;20057;-77
2022/06/11 00:03:39;;;;;;;6.07;2.17;;;19.50;70.70;;;;;;4942225;28;20031;-78
2022/06/11 00:06:05;;;;;;;7.75;3.05;;;19.50;70.70;;;;;;4936180;29;20110;-77
2022/06/11 00:08:31;;;;;;;9.85;2.80;;;19.50;70.90;;;;;;4952125;28;20115;-78
2022/06/11 00:10:57;;;;;;;6.22;1.98;;;19.40;71.10;;;;;;4937422;29;20107;-77
2022/06/11 00:13:23;;;;;;;10.27;2.50;;;19.40;70.80;;;;;;4937512;29;20155;-77
2022/06/11 00:15:51;;;;;;;7.68;2.55;;;19.30;70.80;;;;;;4937262;29;20509;-77
2022/06/11 00:18:17;;;;;;;6.22;2.05;;;19.30;70.80;;;;;;4937332;29;20079;-77
2022/06/11 00:20:43;;;;;;;10.00;2.38;;;19.30;71.10;;;;;;4943852;29;20059;-77
2022/06/11 00:23:09;;;;;;;6.57;2.08;;;19.30;71.30;;;;;;4937501;29;20035;-77
2022/06/11 00:25:35;;;;;;;9.40;2.25;;;19.30;71.20;;;;;;4937025;29;20034;-77
2022/06/11 00:28:02;;;;;;;13.90;2.65;;;19.20;71.50;;;;;;4936998;29;20039;-78
2022/06/11 00:30:28;;;;;;;12.45;3.08;;;19.20;71.70;;;;;;4937041;29;20553;-77
2022/06/11 00:32:57;;;;;;;8.25;2.00;;;19.20;71.20;;;;;;4944679;29;20101;-77
2022/06/11 00:35:25;;;;;;;9.63;2.87;;;19.20;71.30;;;;;;4956221;28;20078;-77
2022/06/11 00:37:51;;;;;;;6.93;2.25;;;19.30;71.40;;;;;;4939204;28;20494;-78
2022/06/11 00:40:21;;;;;;;7.68;2.25;;;19.30;71.20;;;;;;4951525;28;20494;-76
2022/06/11 00:42:47;;;;;;;5.63;2.10;;;19.30;71.10;;;;;;4951265;29;20434;-78
2022/06/11 00:45:24;;;;;;;10.50;1.98;;;19.30;71.20;;;;;;4951488;29;20035;-78
2022/06/11 00:47:55;;;;;;;13.30;2.53;;;19.30;70.90;;;;;;4936841;29;20026;-78
2022/06/11 00:50:31;;;;;;;5.88;1.88;;;19.30;70.70;;;;;;4936362;29;20028;-78
2022/06/11 00:52:58;;;;;;;8.63;1.95;;;19.30;71.00;;;;;;4936808;29;20027;-77
2022/06/11 00:55:36;;;;;;;4.18;1.75;;;19.30;70.60;;;;;;4941299;29;20063;-77
2022/06/11 00:58:14;;;;;;;8.73;1.95;;;19.20;70.90;;;;;;4955803;28;20494;-78
2022/06/11 01:00:52;;;;;;;7.78;1.65;;;19.30;71.20;;;;;;4955724;28;20736;-77
2022/06/11 01:03:39;;;;;;;10.23;1.70;;;19.30;71.10;;;;;;4955561;28;20027;-77
2022/06/11 01:06:18;;;;;;;7.03;2.03;;;19.20;71.00;;;;;;4937110;28;20086;-77
2022/06/11 01:08:59;;;;;;;8.68;1.67;;;19.20;70.90;;;;;;4935219;29;20063;-77
2022/06/11 01:11:36;;;;;;;9.52;1.98;;;19.20;70.80;;;;;;4955652;29;20032;-77
2022/06/11 01:14:14;;;;;;;5.30;1.85;;;19.20;70.70;;;;;;4955394;29;20055;-77
2022/06/11 01:17:01;;;;;;;8.10;2.38;;;19.00;71.20;;;;;;4955663;28;20090;-77
2022/06/11 01:19:57;;;;;;;7.05;1.90;;;19.00;71.20;;;;;;4935067;29;20119;-76
2022/06/11 01:23:00;;;;;;;5.07;1.52;;;18.90;71.40;;;;;;4936161;29;20067;-77
2022/06/11 01:25:32;;;;;;;10.88;2.15;;;18.90;71.40;;;;;;4936341;29;20062;-77
2022/06/11 01:28:17;;;;;;;8.63;2.03;;;18.90;71.60;;;;;;4936159;29;20032;-78
2022/06/11 01:31:04;;;;;;;5.93;1.83;;;19.00;71.60;;;;;;4936276;29;20702;-78
2022/06/11 01:33:52;;;;;;;7.22;1.98;;;19.00;71.50;;;;;;4939871;29;20495;-78
2022/06/11 01:36:28;;;;;;;4.20;1.40;;;19.00;71.20;;;;;;4937608;29;20163;-77
2022/06/11 01:39:04;;;;;;;7.45;2.05;;;19.00;71.30;;;;;;4954730;29;20505;-77
2022/06/11 01:41:38;;;;;;;6.35;2.20;;;19.00;71.10;;;;;;4939850;29;20138;-77
2022/06/11 01:44:11;;;;;;;6.70;2.03;;;19.00;71.40;;;;;;4950299;29;20485;-78
2022/06/11 01:46:43;;;;;;;5.13;1.50;;;18.90;71.20;;;;;;4957944;28;20064;-77
2022/06/11 01:49:28;;;;;;;8.60;1.95;;;18.90;71.20;;;;;;4951985;28;20098;-78
2022/06/11 01:52:02;;;;;;;6.95;2.15;;;18.90;71.30;;;;;;4938462;29;20028;-77
2022/06/11 01:54:49;;;;;;;8.32;2.22;;;18.90;71.40;;;;;;4939980;29;20034;-77
2022/06/11 01:57:27;;;;;;;12.43;2.78;;;18.80;71.40;;;;;;4962181;28;20031;-77
2022/06/11 02:00:12;;;;;;;7.72;1.88;;;18.80;71.40;;;;;;4956433;28;20074;-77
2022/06/11 02:02:47;;;;;;;9.35;2.53;;;18.70;71.90;;;;;;4959076;28;20545;-77
2022/06/11 02:05:34;;;;;;;7.93;1.90;;;18.60;72.10;;;;;;4958936;28;20019;-77
2022/06/11 02:08:25;;;;;;;6.13;1.83;;;18.50;72.00;;;;;;4939668;29;20032;-77
2022/06/11 02:11:18;;;;;;;9.05;1.83;;;18.50;72.30;;;;;;4939788;29;20031;-77
2022/06/11 02:14:02;;;;;;;6.70;1.70;;;18.50;72.30;;;;;;4938826;29;20039;-77
2022/06/11 02:16:41;;;;;;;9.93;1.88;;;18.60;72.00;;;;;;4939255;29;20075;-77
2022/06/11 02:19:15;;;;;;;10.27;2.50;;;18.60;72.30;;;;;;4954380;28;20031;-78
2022/06/11 02:21:53;;;;;;;7.85;2.08;;;18.50;72.20;;;;;;4954479;29;20489;-77
2022/06/11 02:24:30;;;;;;;11.10;2.08;;;18.60;72.20;;;;;;4957191;28;20078;-77
2022/06/11 02:27:00;;;;;;;7.22;1.98;;;18.60;72.00;;;;;;4957123;28;20062;-77
2022/06/11 02:29:27;;;;;;;11.48;2.47;;;18.50;72.10;;;;;;4958731;28;20062;-77
2022/06/11 02:31:57;;;;;;;5.35;1.63;;;18.50;72.30;;;;;;4958415;28;20041;-77
2022/06/11 02:34:25;;;;;;;7.88;1.98;;;18.50;72.30;;;;;;4944495;29;20091;-78
2022/06/11 02:37:26;;;;;;;8.00;1.83;;;18.50;72.20;;;;;;4958262;28;20035;-77
2022/06/11 02:39:54;;;;;;;8.80;2.40;;;18.40;72.20;;;;;;4956743;29;20043;-77
2022/06/11 02:42:23;;;;;;;9.27;2.53;;;18.50;72.00;;;;;;4939815;28;20058;-77
2022/06/11 02:44:49;;;;;;;6.13;1.90;;;18.50;72.20;;;;;;4938884;29;20031;-77
2022/06/11 02:47:18;;;;;;;4.70;1.50;;;18.50;71.90;;;;;;4937975;29;20036;-78
2022/06/11 02:49:44;;;;;;;9.57;1.73;;;18.50;72.00;;;;;;4944620;29;20046;-77
2022/06/11 02:52:19;;;;;;;5.38;1.60;;;18.40;72.00;;;;;;4958179;28;20027;-77
2022/06/11 02:54:45;;;;;;;3.78;1.95;;;18.50;72.20;;;;;;4958277;28;20035;-77
2022/06/11 02:57:14;;;;;;;8.75;1.75;;;18.50;72.00;;;;;;4956643;28;20094;-77
2022/06/11 02:59:42;;;;;;;6.60;1.70;;;18.40;72.20;;;;;;4956630;28;20027;-77
2022/06/11 03:02:08;;;;;;;6.95;1.60;;;18.40;72.10;;;;;;4956481;28;20031;-77
2022/06/11 03:04:33;;;;;;;5.88;1.95;;;18.40;72.30;;;;;;4957699;28;20524;-77
2022/06/11 03:07:01;;;;;;;9.25;1.92;;;18.50;72.20;;;;;;4941086;28;20039;-77
2022/06/11 03:09:30;;;;;;;6.53;1.50;;;18.50;72.20;;;;;;4939656;29;20062;-80
2022/06/11 03:11:57;;;;;;;7.87;1.80;;;18.50;72.20;;;;;;4957665;28;20115;-79
2022/06/11 03:14:23;;;;;;;8.32;2.35;;;18.40;72.10;;;;;;4946119;28;20555;-77
2022/06/11 03:16:50;;;;;;;6.82;2.13;;;18.40;72.20;;;;;;4953191;28;20071;-78
2022/06/11 03:19:18;;;;;;;9.00;1.80;;;18.40;72.10;;;;;;4938698;29;20028;-78
2022/06/11 03:21:44;;;;;;;7.78;1.42;;;18.50;72.00;;;;;;4946032;28;20414;-78
2022/06/11 03:24:09;;;;;;;7.20;1.55;;;18.50;71.90;;;;;;4938283;29;20030;-77
2022/06/11 03:26:36;;;;;;;6.95;1.98;;;18.40;71.80;;;;;;4938120;29;20028;-77
2022/06/11 03:29:01;;;;;;;8.57;2.08;;;18.40;71.90;;;;;;4938127;29;20030;-78
2022/06/11 03:31:27;;;;;;;7.80;1.60;;;18.40;72.10;;;;;;4938290;29;20031;-77
2022/06/11 03:33:52;;;;;;;5.85;1.70;;;18.30;72.20;;;;;;4949274;29;20486;-77
2022/06/11 03:36:19;;;;;;;7.72;2.08;;;18.30;72.30;;;;;;4938055;29;20031;-78
2022/06/11 03:38:46;;;;;;;8.98;1.50;;;18.40;72.10;;;;;;4936725;29;20041;-77
2022/06/11 03:41:13;;;;;;;6.90;1.60;;;18.30;72.20;;;;;;4937817;29;20052;-78
2022/06/11 03:43:39;;;;;;;4.35;1.60;;;18.30;72.30;;;;;;4937695;29;20055;-78
2022/06/11 03:46:06;;;;;;;8.40;2.33;;;18.30;72.30;;;;;;4952716;29;20043;-77
2022/06/11 03:48:33;;;;;;;7.78;1.60;;;18.10;72.50;;;;;;4952501;28;20076;-78
2022/06/11 03:51:00;;;;;;;5.68;1.90;;;18.10;72.40;;;;;;4937958;29;20114;-78
2022/06/11 03:53:28;;;;;;;7.70;1.60;;;18.10;72.30;;;;;;4937833;29;20031;-78
2022/06/11 03:55:54;;;;;;;5.70;1.40;;;18.00;72.60;;;;;;4945817;29;20030;-78
2022/06/11 03:58:21;;;;;;;7.43;1.98;;;18.00;72.80;;;;;;4966815;28;20038;-78
2022/06/11 04:03:33;;;;;;;5.40;1.55;;;17.90;73.20;;;;;;4956715;29;20179;-77
2022/06/11 04:05:58;;;;;;;5.90;2.05;;;17.80;73.20;;;;;;4956743;28;20413;-77
2022/06/11 04:08:26;;;;;;;4.55;1.83;;;17.80;73.60;;;;;;4954294;29;20031;-78
2022/06/11 04:10:56;;;;;;;8.27;1.80;;;17.80;73.60;;;;;;4956565;28;20027;-78
2022/06/11 04:13:23;;;;;;;10.60;1.95;;;17.70;73.80;;;;;;4954386;28;20039;-78
2022/06/11 04:15:49;;;;;;;6.25;1.67;;;17.70;73.90;;;;;;4956559;28;20032;-78
2022/06/11 04:18:40;;;;;;;6.45;1.50;;;17.70;73.80;;;;;;4955398;28;20078;-78
2022/06/11 04:21:10;;;;;;;4.80;1.52;;;17.80;73.60;;;;;;4952273;29;20047;-78
2022/06/11 04:23:38;;;;;;;6.25;2.03;;;17.80;73.80;;;;;;4955127;28;20042;-78
2022/06/11 04:26:08;;;;;;;7.80;2.05;;;17.80;73.50;;;;;;4954971;28;20395;-78
2022/06/11 04:28:35;;;;;;;7.97;1.65;;;17.80;73.50;;;;;;4949519;28;20086;-78
2022/06/11 04:31:04;;;;;;;8.75;2.08;;;17.90;73.50;;;;;;4937154;29;20043;-78
2022/06/11 04:33:30;;;;;;;3.05;1.52;;;17.90;73.40;;;;;;4947498;29;20027;-78
2022/06/11 04:35:56;;;;;;;7.13;2.03;;;17.80;72.90;;;;;;4951486;28;20394;-77
2022/06/11 04:38:22;;;;;;;6.40;1.55;;;17.80;73.30;;;;;;4951605;29;20143;-78
2022/06/11 04:40:48;;;;;;;6.38;1.70;;;17.80;73.40;;;;;;4951687;29;20146;-77
2022/06/11 04:43:14;;;;;;;5.53;2.10;;;17.80;73.40;;;;;;4945174;29;20513;-78
2022/06/11 04:45:41;;;;;;;4.28;1.42;;;17.70;73.50;;;;;;4954366;28;20050;-77
2022/06/11 04:48:07;;;;;;;8.05;2.10;;;17.70;73.10;;;;;;4947722;29;20030;-78
2022/06/11 04:50:34;;;;;;;6.47;1.58;;;17.70;73.20;;;;;;4938743;29;20375;-78
2022/06/11 04:53:00;;;;;;;3.05;1.50;;;17.80;73.50;;;;;;4955992;28;20075;-78
2022/06/11 04:55:26;;;;;;;7.63;1.58;;;17.70;73.50;;;;;;4955664;28;20478;-77
2022/06/11 04:57:52;;;;;;;8.63;2.25;;;17.70;73.60;;;;;;4955825;28;20031;-78
2022/06/11 05:00:21;;;;;;;8.38;2.05;;;17.70;73.70;;;;;;4950689;28;20063;-78
2022/06/11 05:02:48;;;;;;;6.17;1.70;;;17.70;73.70;;;;;;4939545;29;20030;-78
2022/06/11 05:05:13;;;;;;;3.95;1.52;;;17.70;73.50;;;;;;4955568;29;20482;-78
2022/06/11 05:07:40;;;;;;;7.00;1.90;;;17.80;73.30;;;;;;4949695;28;20075;-78
2022/06/11 05:10:07;;;;;;;7.03;1.60;;;17.80;73.30;;;;;;4950357;28;20038;-78
2022/06/11 05:12:33;;;;;;;6.18;1.40;;;17.80;73.30;;;;;;4950472;29;20023;-78
2022/06/11 05:14:58;;;;;;;8.77;1.42;;;17.80;73.60;;;;;;4954973;28;20170;-78
2022/06/11 05:17:24;;;;;;;4.80;1.80;;;17.80;73.60;;;;;;4936751;29;20028;-78
2022/06/11 05:19:50;;;;;;;8.20;1.98;;;17.80;73.40;;;;;;4941440;29;20413;-78
2022/06/11 05:22:16;;;;;;;4.43;1.40;;;17.80;73.30;;;;;;4955486;28;20035;-78
2022/06/11 05:24:42;;;;;;;6.85;1.73;;;17.80;73.60;;;;;;4955424;28;20031;-78
2022/06/11 05:27:14;;;;;;;6.57;1.98;;;17.80;73.80;;;;;;4953943;28;20097;-78
2022/06/11 05:30:00;;;;;;;5.88;1.80;;;17.80;73.90;;;;;;4954275;28;20382;-78
2022/06/11 05:32:30;;;;;;;8.45;1.92;;;17.80;73.80;;;;;;4954127;28;20102;-78
2022/06/11 05:34:58;;;;;;;4.05;1.50;;;17.80;73.80;;;;;;4954215;28;20039;-78
2022/06/11 05:37:24;;;;;;;7.25;1.42;;;17.90;73.80;;;;;;4955556;28;20031;-78
2022/06/11 05:39:50;;;;;;;8.43;2.22;;;17.90;73.80;;;;;;4953807;28;20039;-78
2022/06/11 05:42:19;;;;;;;3.60;1.48;;;18.00;73.70;;;;;;4952823;28;20110;-78
2022/06/11 05:44:45;;;;;;;5.68;1.75;;;18.10;73.40;;;;;;4953814;28;20533;-78
2022/06/11 05:47:14;;;;;;;7.82;1.73;;;18.20;73.20;;;;;;4955200;28;20030;-78
2022/06/11 05:49:45;;;;;;;6.15;1.50;;;18.10;73.20;;;;;;4955339;28;20450;-78
2022/06/11 05:52:19;;;;;;;4.97;1.55;;;18.20;73.00;;;;;;4950497;28;20387;-78
2022/06/11 05:54:46;;;;;;;7.55;1.52;;;18.30;72.70;;;;;;4935998;29;20032;-77
2022/06/11 05:57:15;;;;;;;8.90;2.30;;;18.40;72.60;;;;;;4947606;29;20170;-76
2022/06/11 05:59:47;;;;;;;4.70;1.33;;;18.50;72.50;;;;;;4944942;29;20027;-76
2022/06/11 06:02:17;;;;;;;7.35;1.70;;;18.60;72.30;;;;;;4954771;28;20057;-77
2022/06/11 06:04:42;;;;;;;5.65;1.42;;;18.70;71.90;;;;;;4948997;28;20549;-78
2022/06/11 06:07:09;;;;;;;4.90;1.65;;;18.80;71.60;;;;;;4950474;29;20042;-77
2022/06/11 06:09:35;;;;;;;3.50;1.48;;;18.90;71.20;;;;;;4935858;29;20051;-78
2022/06/11 06:12:02;;;;;;;7.55;1.60;;;18.90;71.40;;;;;;4938044;29;20036;-77
2022/06/11 06:14:27;;;;;;;4.18;1.42;;;19.10;71.10;;;;;;4950827;29;20035;-76
2022/06/11 06:16:53;;;;;;;10.25;1.40;;;19.30;70.60;;;;;;4968022;28;20031;-77
2022/06/11 06:19:19;;;;;;;8.02;1.17;;;19.40;70.20;;;;;;4950042;29;20027;-77
2022/06/11 06:21:45;;;;;;;7.05;1.67;;;19.60;69.70;;;;;;4948935;28;20035;-76
2022/06/11 06:24:10;;;;;;;5.45;1.33;;;19.80;69.30;;;;;;4957175;28;20106;-75
2022/06/11 06:26:36;;;;;;;9.90;2.00;;;19.80;68.60;;;;;;4956786;28;20078;-75
2022/06/11 06:29:03;;;;;;;4.93;1.17;;;20.00;68.40;;;;;;4954558;28;20026;-76
2022/06/11 06:31:28;;;;;;;4.60;1.65;;;20.00;68.10;;;;;;4956171;28;20455;-77
2022/06/11 06:33:58;;;;;;;9.30;2.17;;;20.10;68.20;;;;;;4942829;28;20031;-78
2022/06/11 06:36:25;;;;;;;9.15;1.67;;;20.00;68.00;;;;;;4937127;29;20568;-76
2022/06/11 06:38:51;;;;;;;6.03;1.40;;;20.00;67.70;;;;;;4951421;29;20031;-76
2022/06/11 06:41:17;;;;;;;4.78;0.98;;;20.20;67.50;;;;;;4951307;29;20051;-76
2022/06/11 06:43:43;;;;;;;7.78;1.45;;;20.10;67.20;;;;;;4954661;29;20031;-77
2022/06/11 06:46:09;;;;;;;3.40;1.10;;;20.20;66.90;;;;;;4956571;28;20547;-77
2022/06/11 06:48:35;;;;;;;6.28;1.10;;;20.30;66.70;;;;;;4955576;29;20031;-76
2022/06/11 06:51:01;;;;;;;6.55;1.95;;;20.30;66.40;;;;;;4956332;28;20037;-77
2022/06/11 06:53:27;;;;;;;6.47;1.95;;;20.40;66.20;;;;;;4954590;29;20035;-76
2022/06/11 06:55:53;;;;;;;4.47;1.30;;;20.50;66.30;;;;;;4956698;28;20027;-76
2022/06/11 06:58:19;;;;;;;3.97;1.10;;;20.50;65.80;;;;;;4956899;29;20031;-77
2022/06/11 07:00:46;;;;;;;6.63;1.67;;;20.70;65.70;;;;;;4957427;28;20027;-77
2022/06/11 07:03:12;;;;;;;9.00;1.40;;;20.80;65.00;;;;;;4957205;29;20117;-77
2022/06/11 07:05:39;;;;;;;9.65;1.25;;;21.10;64.60;;;;;;4947653;28;20106;-77
2022/06/11 07:08:06;;;;;;;3.00;1.00;;;21.10;64.10;;;;;;4938579;29;20027;-76
2022/06/11 07:10:32;;;;;;;5.47;1.48;;;21.00;63.80;;;;;;4939260;28;20522;-77
2022/06/11 07:12:59;;;;;;;6.22;1.55;;;20.80;64.70;;;;;;4956806;28;20031;-78
2022/06/11 07:15:25;;;;;;;7.28;1.30;;;20.80;64.90;;;;;;4956314;29;20054;-76
2022/06/11 07:17:56;;;;;;;8.20;1.70;;;20.70;65.30;;;;;;4955209;29;20023;-75
2022/06/11 07:20:27;;;;;;;7.35;1.83;;;20.80;65.70;;;;;;4956212;28;20134;-77
2022/06/11 07:22:55;;;;;;;5.45;1.33;;;21.20;64.90;;;;;;4954547;28;20027;-77
2022/06/11 07:25:21;;;;;;;4.07;1.15;;;21.50;63.60;;;;;;4957238;28;20031;-76
2022/06/11 07:27:52;;;;;;;3.40;1.05;;;21.80;62.50;;;;;;4967731;28;20032;-82
2022/06/11 07:30:24;;;;;;;4.53;0.90;;;22.20;61.10;;;;;;4936919;29;20039;-76
2022/06/11 07:32:56;;;;;;;5.55;1.33;;;22.70;59.30;;;;;;4941295;28;20031;-76
2022/06/11 07:35:22;;;;;;;3.03;1.00;;;23.00;58.00;;;;;;4945152;28;20666;-76
2022/06/11 07:37:49;;;;;;;6.38;1.40;;;23.30;57.30;;;;;;4950021;28;20588;-76
2022/06/11 07:40:15;;;;;;;4.38;0.90;;;23.10;57.70;;;;;;4947730;28;20062;-77
2022/06/11 07:42:41;;;;;;;6.00;1.13;;;22.90;57.70;;;;;;4944074;28;20043;-77
2022/06/11 07:45:07;;;;;;;8.88;1.08;;;22.70;58.10;;;;;;4941715;29;20036;-77
2022/06/11 07:50:18;;;;;;;5.75;1.05;;;22.30;58.90;;;;;;4953252;29;20174;-77
2022/06/11 07:52:44;;;;;;;2.17;0.70;;;22.30;59.50;;;;;;4952049;28;20103;-76
2022/06/11 07:55:11;;;;;;;5.05;1.13;;;22.30;59.40;;;;;;4939831;29;20653;-77
2022/06/11 07:57:38;;;;;;;2.67;1.02;;;22.50;58.90;;;;;;4939054;28;20289;-77
2022/06/11 08:00:06;;;;;;;5.45;0.90;;;22.90;57.90;;;;;;4938689;29;20151;-77
2022/06/11 08:02:32;;;;;;;3.45;1.10;;;24.60;54.70;;;;;;4944300;29;20607;-78
2022/06/11 08:04:57;;;;;;;5.18;1.48;;;28.50;46.00;;;;;;4946628;29;20035;-75
2022/06/11 08:07:25;;;;;;;7.50;1.90;;;31.50;41.00;;;;;;4968513;28;20497;-76
2022/06/11 08:09:51;;;;;;;5.03;1.23;;;33.70;34.90;;;;;;4937270;29;20027;-76
2022/06/11 08:12:16;;;;;;;5.88;1.10;;;34.80;33.30;;;;;;4950797;28;20462;-76
2022/06/11 08:14:43;;;;;;;2.97;0.90;;;35.10;33.10;;;;;;4938576;29;20024;-77
2022/06/11 08:17:08;;;;;;;4.95;0.90;;;35.30;30.60;;;;;;4945144;29;20054;-78
2022/06/11 08:19:34;;;;;;;4.55;0.90;;;36.40;29.40;;;;;;4961262;28;20536;-76
2022/06/11 08:21:59;;;;;;;2.25;0.50;;;36.50;29.40;;;;;;4952127;29;20765;-77
2022/06/11 08:24:25;;;;;;;5.00;0.80;;;37.30;28.20;;;;;;4950659;29;20046;-76
2022/06/11 08:26:51;;;;;;;4.82;1.08;;;37.50;27.30;;;;;;4947463;28;20038;-77
2022/06/11 08:29:17;;;;;;;4.68;0.90;;;36.60;27.90;;;;;;4949362;29;20035;-77
2022/06/11 08:31:42;;;;;;;3.58;0.73;;;36.30;28.30;;;;;;4954143;29;20548;-77
2022/06/11 08:34:08;;;;;;;6.15;0.85;;;35.40;29.80;;;;;;4968234;28;20050;-77
2022/06/11 08:36:33;;;;;;;2.55;0.57;;;34.70;30.10;;;;;;4950814;28;20533;-78
2022/06/11 08:38:59;;;;;;;3.50;0.30;;;35.70;29.10;;;;;;4951350;29;20027;-78
2022/06/11 08:41:33;;;;;;;3.72;0.68;;;34.90;30.00;;;;;;4945750;28;20510;-77
2022/06/11 08:44:03;;;;;;;5.05;0.75;;;33.20;31.60;;;;;;4949252;28;20035;-78
2022/06/11 08:46:33;;;;;;;5.50;1.00;;;32.50;33.30;;;;;;4938118;28;20402;-78
2022/06/11 08:49:08;;;;;;;1.65;0.73;;;34.20;31.00;;;;;;4945933;29;20570;-87
2022/06/11 08:51:44;;;;;;;3.63;0.90;;;35.40;29.40;;;;;;4954022;28;20064;-78
2022/06/11 08:54:23;;;;;;;5.93;0.90;;;36.50;28.20;;;;;;4935409;29;20032;-79
2022/06/11 08:56:52;;;;;;;3.58;0.82;;;37.50;27.50;;;;;;4952597;28;20150;-80
2022/06/11 08:59:30;;;;;;;3.80;0.90;;;38.30;26.00;;;;;;4953103;28;20045;-78
2022/06/11 09:02:04;;;;;;;3.95;1.15;;;37.30;27.10;;;;;;4952006;29;20062;-79
2022/06/11 09:04:46;;;;;;;4.03;1.80;;;36.70;27.30;;;;;;4951251;29;20042;-77
2022/06/11 09:07:34;;;;;;;3.17;0.75;;;36.90;27.30;;;;;;4952238;29;20747;-78
2022/06/11 09:10:11;;;;;;;3.93;0.80;;;34.80;29.20;;;;;;4951198;29;20125;-79
2022/06/11 09:13:08;;;;;;;3.42;0.73;;;35.80;29.10;;;;;;4945622;29;20117;-79
2022/06/11 09:15:46;;;;;;;1.42;0.50;;;36.70;27.20;;;;;;4963339;28;20098;-79
2022/06/11 09:18:56;;;;;;;3.63;0.50;;;38.30;26.70;;;;;;4960748;28;20458;-78
2022/06/11 09:21:27;;;;;;;4.07;0.82;;;36.40;27.30;;;;;;4941991;29;20032;-78
2022/06/11 09:23:59;;;;;;;3.88;0.80;;;34.10;29.90;;;;;;4949145;29;20047;-78
2022/06/11 09:26:48;;;;;;;2.90;0.77;;;32.80;32.40;;;;;;4967313;28;20024;-78
2022/06/11 09:29:27;;;;;;;3.60;1.08;;;31.60;34.70;;;;;;4951050;29;20092;-78
2022/06/11 09:32:25;;;;;;;3.63;0.98;;;30.60;36.90;;;;;;4964655;28;20027;-78
2022/06/11 09:34:56;;;;;;;3.28;0.93;;;29.80;38.00;;;;;;4956298;28;20514;-78
2022/06/11 09:37:51;;;;;;;1.52;0.52;;;29.10;39.20;;;;;;4939791;29;20031;-78
2022/06/11 09:40:49;;;;;;;3.33;0.70;;;28.70;39.20;;;;;;4954746;28;20085;-77
2022/06/11 09:43:25;;;;;;;1.67;0.50;;;28.30;40.50;;;;;;4955147;28;20043;-82
2022/06/11 09:46:22;;;;;;;3.33;1.08;;;27.90;41.50;;;;;;4965698;28;20126;-78
2022/06/11 09:49:06;;;;;;;4.20;0.60;;;30.00;39.30;;;;;;4955213;28;20031;-78
2022/06/11 09:51:57;;;;;;;2.92;0.60;;;31.00;36.70;;;;;;4942086;29;20032;-79
2022/06/11 09:54:29;;;;;;;2.70;1.08;;;30.80;34.90;;;;;;4951015;29;20027;-79
2022/06/11 09:57:14;;;;;;;3.47;0.90;;;31.80;34.70;;;;;;4945384;28;20027;-79
2022/06/11 09:59:46;;;;;;;3.10;0.73;;;33.40;31.90;;;;;;4958919;28;20050;-79
2022/06/11 10:04:58;;;;;;;2.42;0.98;;;35.70;28.10;;;;;;4957660;28;20082;-79
2022/06/11 10:07:34;;;;;;;2.53;0.90;;;36.10;26.90;;;;;;4958785;28;20026;-79
2022/06/11 10:10:06;;;;;;;3.03;0.77;;;36.70;27.20;;;;;;4948380;28;20032;-80
2022/06/11 10:12:46;;;;;;;3.22;0.50;;;37.10;27.40;;;;;;4956060;29;20569;-79
2022/06/11 10:15:42;;;;;;;1.83;0.50;;;35.30;28.50;;;;;;4957424;28;20023;-79
2022/06/11 10:18:17;;;;;;;4.03;0.80;;;34.20;29.80;;;;;;4958722;28;20031;-79
2022/06/11 10:21:00;;;;;;;1.88;0.65;;;32.90;32.30;;;;;;4954175;28;20035;-79
2022/06/11 10:23:25;;;;;;;3.25;1.00;;;31.80;34.00;;;;;;4950760;28;20038;-79
2022/06/11 10:26:06;;;;;;;1.70;0.68;;;31.60;33.70;;;;;;4939116;29;20031;-79
2022/06/11 10:28:40;;;;;;;1.75;0.50;;;32.50;32.80;;;;;;4954062;29;20035;-77
2022/06/11 10:31:08;;;;;;;2.25;0.63;;;33.30;33.10;;;;;;4939162;29;20098;-77
2022/06/11 10:33:53;;;;;;;4.18;0.65;;;33.80;31.30;;;;;;4951948;29;20033;-82
2022/06/11 10:36:32;;;;;;;2.88;0.60;;;33.90;30.80;;;;;;4957243;29;20122;-78
2022/06/11 10:39:13;;;;;;;2.00;0.70;;;33.90;29.20;;;;;;4958155;28;20024;-79
2022/06/11 10:42:02;;;;;;;1.35;0.30;;;33.60;29.80;;;;;;4964286;28;20047;-80
2022/06/11 10:44:49;;;;;;;1.92;0.43;;;33.10;31.40;;;;;;4937994;29;20046;-81
2022/06/11 10:47:15;;;;;;;3.75;0.80;;;32.20;32.50;;;;;;4953737;29;20032;-77
2022/06/11 10:49:42;;;;;;;0.90;0.40;;;31.80;32.60;;;;;;4940389;29;20020;-77
2022/06/11 10:52:28;;;;;;;2.42;0.50;;;31.20;33.30;;;;;;4957277;28;20031;-80
2022/06/11 10:54:53;;;;;;;1.52;0.45;;;30.70;34.10;;;;;;4952956;28;20734;-86
2022/06/11 10:57:25;;;;;;;4.05;0.80;;;30.00;34.10;;;;;;4952717;28;20043;-90
2022/06/11 11:00:01;;;;;;;1.38;0.43;;;29.80;34.50;;;;;;4947439;29;20502;-76
2022/06/11 11:02:37;;;;;;;1.92;0.60;;;29.80;35.80;;;;;;4956324;29;20046;-78
2022/06/11 11:05:08;;;;;;;1.77;0.60;;;29.70;36.40;;;;;;4963939;28;20073;-77
2022/06/11 11:07:48;;;;;;;2.47;0.75;;;29.50;35.60;;;;;;4960488;28;20069;-78
2022/06/11 11:10:34;;;;;;;2.35;0.65;;;29.40;36.90;;;;;;4953201;28;20118;-77
2022/06/11 11:13:05;;;;;;;11.68;3.47;;;29.20;36.90;;;;;;4948022;29;20027;-76
2022/06/11 11:15:39;;;;;;;2.97;1.40;;;28.90;37.40;;;;;;4954553;28;20102;-79
2022/06/11 11:18:31;;;;;;;1.20;0.40;;;28.60;38.40;;;;;;4955570;28;20035;-76
2022/06/11 11:20:57;;;;;;;2.33;0.55;;;28.50;37.90;;;;;;4957759;28;20032;-76
2022/06/11 11:23:39;;;;;;;3.50;0.68;;;28.50;37.00;;;;;;4954617;28;20042;-77
2022/06/11 11:26:35;;;;;;;2.58;0.68;;;28.30;37.30;;;;;;4957818;28;20023;-76
2022/06/11 11:29:23;;;;;;;2.25;0.77;;;28.10;36.70;;;;;;4939455;28;20028;-76
2022/06/11 11:31:57;;;;;;;1.88;0.77;;;27.90;37.70;;;;;;4938520;29;20055;-77
2022/06/11 11:34:28;;;;;;;2.20;0.52;;;27.90;38.80;;;;;;4938278;29;20035;-77
2022/06/11 11:37:18;;;;;;;3.63;1.13;;;28.00;38.90;;;;;;4941490;29;20450;-76
2022/06/11 11:40:00;;;;;;;2.05;0.65;;;28.30;41.10;;;;;;4938215;29;20036;-77
2022/06/11 11:42:31;;;;;;;2.60;0.75;;;28.30;38.70;;;;;;4936763;29;20062;-77
2022/06/11 11:44:59;;;;;;;3.90;1.02;;;28.40;39.80;;;;;;4938095;29;20035;-77
2022/06/11 11:47:34;;;;;;;2.78;0.77;;;28.50;39.40;;;;;;4938300;29;20023;-83
2022/06/11 11:50:12;;;;;;;1.58;0.40;;;28.60;38.30;;;;;;4949769;28;20034;-77
2022/06/11 11:53:00;;;;;;;2.50;0.68;;;28.60;38.10;;;;;;4964745;28;20031;-79
2022/06/11 11:55:28;;;;;;;2.53;0.50;;;28.60;36.90;;;;;;4957076;28;20063;-79
2022/06/11 11:58:05;;;;;;;2.75;0.55;;;28.80;37.90;;;;;;4957156;29;20414;-84
2022/06/11 12:00:39;;;;;;;3.35;0.70;;;28.80;36.70;;;;;;4951440;29;20027;-91
2022/06/11 12:03:13;;;;;;;3.00;0.70;;;28.50;37.60;;;;;;4949561;29;20027;-88
2022/06/11 12:05:53;;;;;;;3.72;0.70;;;28.30;35.80;;;;;;4953779;28;20067;-89
2022/06/11 12:08:26;;;;;;;3.58;0.63;;;27.90;37.90;;;;;;4943162;29;20418;-84
2022/06/11 12:10:57;;;;;;;2.50;0.85;;;27.60;37.90;;;;;;4952825;28;20011;-85
2022/06/11 12:13:39;;;;;;;2.30;0.60;;;27.30;38.40;;;;;;4953239;28;20027;-85
2022/06/11 12:16:06;;;;;;;3.22;0.93;;;27.40;38.70;;;;;;4947875;29;20118;-85
2022/06/11 12:18:35;;;;;;;0.68;0.40;;;27.70;39.80;;;;;;4952944;28;20023;-82
2022/06/11 12:21:07;;;;;;;1.88;0.65;;;27.80;39.90;;;;;;4953319;28;20055;-83
2022/06/11 12:23:41;;;;;;;1.73;0.50;;;27.90;38.80;;;;;;4944614;29;20043;-84
2022/06/11 12:26:27;;;;;;;2.22;0.70;;;28.00;41.70;;;;;;4946512;29;20029;-83
2022/06/11 12:29:06;;;;;;;3.67;0.80;;;28.00;40.40;;;;;;4951345;29;20059;-82
2022/06/11 12:31:33;;;;;;;4.28;1.08;;;28.10;38.40;;;;;;4953642;29;20565;-82
2022/06/11 12:34:01;;;;;;;1.67;0.70;;;28.10;38.10;;;;;;4954158;29;20039;-83
2022/06/11 12:36:51;;;;;;;2.17;0.90;;;28.10;38.00;;;;;;4950430;28;20034;-82
2022/06/11 12:39:34;;;;;;;2.65;0.57;;;28.10;41.00;;;;;;4964374;28;20035;-83
2022/06/11 12:42:08;;;;;;;1.00;0.50;;;28.20;36.50;;;;;;4951866;28;20194;-83
2022/06/11 12:44:52;;;;;;;3.80;0.68;;;28.20;38.80;;;;;;4968158;28;20038;-82
2022/06/11 12:47:48;;;;;;;3.53;0.60;;;28.30;37.30;;;;;;4951847;28;20556;-82
2022/06/11 12:50:24;;;;;;;3.25;0.60;;;28.30;39.60;;;;;;4951798;29;20086;-82
2022/06/11 12:53:06;;;;;;;5.55;1.00;;;28.30;39.30;;;;;;4948348;28;20115;-84
2022/06/11 12:55:46;;;;;;;5.13;1.65;;;28.30;37.60;;;;;;4943059;28;20046;-81
2022/06/11 12:58:26;;;;;;;1.65;0.55;;;28.30;37.00;;;;;;4953694;28;20027;-80
2022/06/11 13:01:08;;;;;;;3.78;0.57;;;28.30;37.90;;;;;;4949986;29;20050;-80
2022/06/11 13:03:38;;;;;;;2.28;0.50;;;28.20;34.40;;;;;;4970746;28;20027;-79
2022/06/11 13:06:25;;;;;;;4.03;0.75;;;28.00;36.30;;;;;;4968029;28;20027;-78
2022/06/11 13:09:15;;;;;;;4.07;1.05;;;28.00;36.10;;;;;;4949503;29;20089;-79
2022/06/11 13:12:19;;;;;;;3.67;0.80;;;28.00;36.70;;;;;;4966711;28;20038;-79
2022/06/11 13:14:57;;;;;;;2.70;0.75;;;28.00;37.10;;;;;;4957462;28;20083;-79
2022/06/11 13:17:35;;;;;;;1.70;0.70;;;28.00;36.80;;;;;;4960275;28;20038;-79
2022/06/11 13:20:54;;;;;;;3.05;0.60;;;28.00;36.90;;;;;;4954634;28;20055;-78
2022/06/11 13:23:45;;;;;;;1.88;0.70;;;27.90;36.80;;;;;;4948247;28;20054;-77